createdAt,value
2017-11-21T00:00:49.363Z,0
2017-11-21T00:01:58.814Z,0
2017-11-21T00:03:08.509Z,0
2017-11-21T00:04:17.699Z,0
2017-11-21T00:05:27.405Z,0
2017-11-21T00:06:37.115Z,0
2017-11-21T00:07:46.847Z,0
2017-11-21T00:08:56.798Z,0
2017-11-21T00:10:05.978Z,0
2017-11-21T00:11:15.964Z,0
2017-11-21T00:12:25.415Z,0
2017-11-21T00:13:35.385Z,0
2017-11-21T00:14:45.351Z,0
2017-11-21T00:15:55.332Z,0
2017-11-21T00:17:05.048Z,0
2017-11-21T00:18:15.039Z,0
2017-11-21T00:19:25.020Z,0
2017-11-21T00:20:34.739Z,0
2017-11-21T00:21:44.747Z,0
2017-11-21T00:22:54.718Z,0
2017-11-21T00:24:04.697Z,0
2017-11-21T00:25:13.878Z,0
2017-11-21T00:26:23.852Z,0
2017-11-21T00:27:33.832Z,0
2017-11-21T00:28:43.800Z,0
2017-11-21T00:29:53.496Z,0
2017-11-21T00:31:03.482Z,0
2017-11-21T00:32:13.461Z,0
2017-11-21T00:33:23.158Z,0
2017-11-21T00:34:33.168Z,0
2017-11-21T00:35:42.867Z,0
2017-11-21T00:36:52.837Z,0
2017-11-21T00:38:02.544Z,0
2017-11-21T00:39:12.263Z,0
2017-11-21T00:40:21.963Z,0
2017-11-21T00:41:31.407Z,0
2017-11-21T00:42:41.375Z,0
2017-11-21T00:43:51.344Z,0
2017-11-21T00:45:01.312Z,0
2017-11-21T00:46:11.022Z,0
2017-11-21T00:47:20.748Z,0
2017-11-21T00:48:30.198Z,0
2017-11-21T00:49:40.171Z,0
2017-11-21T00:50:49.886Z,0
2017-11-21T00:51:59.852Z,0
2017-11-21T00:53:09.846Z,0
2017-11-21T00:54:19.544Z,0
2017-11-21T00:55:29.525Z,0
2017-11-21T00:56:39.499Z,0
2017-11-21T00:57:48.966Z,0
2017-11-21T00:58:58.677Z,0
2017-11-21T01:00:08.660Z,0
2017-11-21T01:01:18.358Z,0
2017-11-21T01:02:28.059Z,0
2017-11-21T01:03:37.507Z,0
2017-11-21T01:04:46.678Z,0
2017-11-21T01:05:56.392Z,0
2017-11-21T01:07:06.355Z,0
2017-11-21T01:08:16.320Z,0
2017-11-21T01:09:26.283Z,0
2017-11-21T01:10:36.269Z,0
2017-11-21T01:11:45.702Z,0
2017-11-21T01:12:55.668Z,0
2017-11-21T01:14:05.645Z,0
2017-11-21T01:15:15.359Z,0
2017-11-21T01:16:25.083Z,0
2017-11-21T01:17:35.066Z,0
2017-11-21T01:18:45.030Z,0
2017-11-21T01:19:54.945Z,0
2017-11-21T01:21:04.905Z,0
2017-11-21T01:22:14.869Z,0
2017-11-21T01:23:24.836Z,0
2017-11-21T01:24:34.792Z,0
2017-11-21T01:25:44.806Z,0
2017-11-21T01:26:54.501Z,0
2017-11-21T01:28:04.477Z,0
2017-11-21T01:29:14.444Z,0
2017-11-21T01:30:24.141Z,0
2017-11-21T01:31:33.855Z,0
2017-11-21T01:32:43.583Z,0
2017-11-21T01:33:53.282Z,0
2017-11-21T01:35:02.718Z,0
2017-11-21T01:36:12.687Z,0
2017-11-21T01:37:22.385Z,0
2017-11-21T01:38:32.092Z,0
2017-11-21T01:39:42.162Z,0
2017-11-21T01:40:51.610Z,0
2017-11-21T01:42:01.586Z,0
2017-11-21T01:43:11.286Z,0
2017-11-21T01:44:20.754Z,0
2017-11-21T01:45:30.441Z,0
2017-11-21T01:46:40.412Z,0
2017-11-21T01:47:50.120Z,0
2017-11-21T01:48:59.845Z,0
2017-11-21T01:50:09.833Z,0
2017-11-21T01:51:19.790Z,0
2017-11-21T01:52:29.491Z,0
2017-11-21T01:53:39.465Z,0
2017-11-21T01:54:49.432Z,0
2017-11-21T01:55:59.398Z,0
2017-11-21T01:57:09.360Z,0
2017-11-21T01:58:19.324Z,0
2017-11-21T01:59:29.028Z,0
2017-11-21T02:00:38.738Z,0
2017-11-21T02:01:48.708Z,0
2017-11-21T02:02:58.413Z,0
2017-11-21T02:04:08.421Z,0
2017-11-21T02:05:18.124Z,0
2017-11-21T02:06:27.832Z,0
2017-11-21T02:07:37.529Z,0
2017-11-21T02:08:47.501Z,0
2017-11-21T02:09:57.481Z,0
2017-11-21T02:11:07.178Z,0
2017-11-21T02:12:17.162Z,0
2017-11-21T02:13:27.137Z,0
2017-11-21T02:14:36.856Z,0
2017-11-21T02:15:46.558Z,0
2017-11-21T02:16:56.265Z,0
2017-11-21T02:18:05.991Z,0
2017-11-21T02:19:15.703Z,0
2017-11-21T02:20:25.665Z,0
2017-11-21T02:21:35.643Z,0
2017-11-21T02:22:45.356Z,0
2017-11-21T02:23:55.336Z,0
2017-11-21T02:25:05.048Z,0
2017-11-21T02:26:14.782Z,0
2017-11-21T02:27:24.486Z,0
2017-11-21T02:28:34.479Z,0
2017-11-21T02:29:44.186Z,0
2017-11-21T02:30:54.203Z,0
2017-11-21T02:32:04.175Z,0
2017-11-21T02:33:14.161Z,0
2017-11-21T02:34:23.879Z,0
2017-11-21T02:35:33.581Z,0
2017-11-21T02:36:43.579Z,0
2017-11-21T02:37:53.296Z,0
2017-11-21T02:39:03.014Z,0
2017-11-21T02:40:13.169Z,0
2017-11-21T02:41:23.243Z,0
2017-11-21T02:42:32.858Z,0
2017-11-21T02:43:42.858Z,0
2017-11-21T02:44:52.697Z,0
2017-11-21T02:46:02.520Z,0
2017-11-21T02:47:12.277Z,0
2017-11-21T02:48:22.251Z,0
2017-11-21T02:49:31.991Z,0
2017-11-21T02:50:41.693Z,0
2017-11-21T02:51:51.414Z,0
2017-11-21T02:53:01.392Z,0
2017-11-21T02:54:11.102Z,0
2017-11-21T02:55:20.569Z,0
2017-11-21T02:56:30.272Z,0
2017-11-21T02:57:40.228Z,0
2017-11-21T02:58:50.186Z,0
2017-11-21T03:00:00.151Z,0
2017-11-21T03:01:10.139Z,0
2017-11-21T03:02:19.847Z,0
2017-11-21T03:03:29.554Z,0
2017-11-21T03:04:38.993Z,0
2017-11-21T03:05:48.691Z,0
2017-11-21T03:06:58.661Z,0
2017-11-21T03:08:08.364Z,0
2017-11-21T03:09:18.066Z,0
2017-11-21T03:10:27.778Z,0
2017-11-21T03:11:37.740Z,0
2017-11-21T03:12:46.651Z,0
2017-11-21T03:13:56.611Z,0
2017-11-21T03:15:05.797Z,0
2017-11-21T03:16:15.807Z,0
2017-11-21T03:17:25.800Z,0
2017-11-21T03:18:35.503Z,0
2017-11-21T03:19:45.467Z,0
2017-11-21T03:20:55.441Z,0
2017-11-21T03:22:05.400Z,0
2017-11-21T03:23:15.091Z,0
2017-11-21T03:24:24.796Z,0
2017-11-21T03:25:34.767Z,0
2017-11-21T03:26:44.214Z,0
2017-11-21T03:27:53.961Z,0
2017-11-21T03:29:03.923Z,0
2017-11-21T03:30:13.904Z,0
2017-11-21T03:31:23.608Z,0
2017-11-21T03:32:32.796Z,0
2017-11-21T03:33:42.769Z,0
2017-11-21T03:34:52.997Z,0
2017-11-21T03:36:02.700Z,0
2017-11-21T03:37:12.659Z,0
2017-11-21T03:38:22.373Z,0
2017-11-21T03:39:32.085Z,0
2017-11-21T03:40:42.054Z,0
2017-11-21T03:41:52.014Z,0
2017-11-21T03:43:01.724Z,0
2017-11-21T03:44:11.685Z,0
2017-11-21T03:45:21.387Z,0
2017-11-21T03:46:31.344Z,0
2017-11-21T03:47:41.303Z,0
2017-11-21T03:48:51.279Z,0
2017-11-21T03:50:01.244Z,0
2017-11-21T03:51:11.433Z,0
2017-11-21T03:52:21.134Z,0
2017-11-21T03:53:30.576Z,0
2017-11-21T03:54:40.540Z,0
2017-11-21T03:55:50.237Z,0
2017-11-21T03:56:59.946Z,0
2017-11-21T03:58:09.649Z,0
2017-11-21T03:59:19.350Z,0
2017-11-21T04:00:29.042Z,0
2017-11-21T04:01:39.005Z,0
2017-11-21T04:02:48.716Z,0
2017-11-21T04:03:58.412Z,0
2017-11-21T04:05:08.380Z,0
2017-11-21T04:06:18.338Z,0
2017-11-21T04:07:28.340Z,0
2017-11-21T04:08:38.304Z,0
2017-11-21T04:09:48.267Z,0
2017-11-21T04:10:57.711Z,0
2017-11-21T04:12:07.173Z,0
2017-11-21T04:13:17.136Z,0
2017-11-21T04:14:26.572Z,0
2017-11-21T04:15:36.560Z,0
2017-11-21T04:16:46.259Z,0
2017-11-21T04:17:55.963Z,0
2017-11-21T04:19:05.939Z,0
2017-11-21T04:20:15.915Z,0
2017-11-21T04:21:25.357Z,0
2017-11-21T04:22:35.054Z,0
2017-11-21T04:23:44.763Z,0
2017-11-21T04:24:54.742Z,0
2017-11-21T04:26:04.921Z,0
2017-11-21T04:27:14.880Z,0
2017-11-21T04:28:24.832Z,0
2017-11-21T04:29:34.801Z,0
2017-11-21T04:30:43.984Z,0
2017-11-21T04:31:53.694Z,0
2017-11-21T04:33:03.681Z,0
2017-11-21T04:34:13.444Z,0
2017-11-21T04:35:23.146Z,0
2017-11-21T04:36:33.112Z,0
2017-11-21T04:37:43.079Z,0
2017-11-21T04:38:53.029Z,0
2017-11-21T04:40:02.736Z,0
2017-11-21T04:41:12.692Z,0
2017-11-21T04:42:22.654Z,0
2017-11-21T04:43:32.371Z,0
2017-11-21T04:44:41.566Z,0
2017-11-21T04:45:51.536Z,0
2017-11-21T04:47:01.240Z,0
2017-11-21T04:48:11.210Z,0
2017-11-21T04:49:20.652Z,0
2017-11-21T04:50:30.620Z,0
2017-11-21T04:51:39.809Z,0
2017-11-21T04:52:49.518Z,0
2017-11-21T04:53:58.966Z,0
2017-11-21T04:55:08.940Z,0
2017-11-21T04:56:18.923Z,0
2017-11-21T04:57:28.626Z,0
2017-11-21T04:58:38.328Z,0
2017-11-21T04:59:48.281Z,0
2017-11-21T05:00:58.250Z,0
2017-11-21T05:02:08.230Z,0
2017-11-21T05:03:17.677Z,0
2017-11-21T05:04:27.643Z,0
2017-11-21T05:05:37.351Z,0
2017-11-21T05:06:47.311Z,0
2017-11-21T05:07:56.743Z,0
2017-11-21T05:09:06.204Z,0
2017-11-21T05:10:16.164Z,0
2017-11-21T05:11:25.880Z,0
2017-11-21T05:12:35.601Z,0
2017-11-21T05:13:45.575Z,0
2017-11-21T05:14:55.010Z,0
2017-11-21T05:16:04.988Z,0
2017-11-21T05:17:14.945Z,0
2017-11-21T05:18:24.378Z,0
2017-11-21T05:19:34.335Z,0
2017-11-21T05:20:43.782Z,0
2017-11-21T05:21:53.781Z,0
2017-11-21T05:23:03.739Z,0
2017-11-21T05:24:13.460Z,0
2017-11-21T05:25:23.436Z,0
2017-11-21T05:26:33.138Z,0
2017-11-21T05:27:42.847Z,0
2017-11-21T05:28:52.818Z,0
2017-11-21T05:30:02.258Z,0
2017-11-21T05:31:11.998Z,0
2017-11-21T05:32:21.691Z,0
2017-11-21T05:33:31.655Z,0
2017-11-21T05:34:41.359Z,0
2017-11-21T05:35:51.330Z,0
2017-11-21T05:37:01.310Z,0
2017-11-21T05:38:11.389Z,0
2017-11-21T05:39:21.380Z,0
2017-11-21T05:40:31.345Z,0
2017-11-21T05:41:40.521Z,0
2017-11-21T05:42:50.485Z,0
2017-11-21T05:44:00.448Z,0
2017-11-21T05:45:10.158Z,0
2017-11-21T05:46:20.111Z,0
2017-11-21T05:47:29.550Z,0
2017-11-21T05:48:39.540Z,0
2017-11-21T05:49:49.515Z,0
2017-11-21T05:50:59.209Z,0
2017-11-21T05:52:09.191Z,0
2017-11-21T05:53:19.155Z,0
2017-11-21T05:54:29.130Z,0
2017-11-21T05:55:38.825Z,0
2017-11-21T05:56:48.790Z,0
2017-11-21T05:57:58.243Z,0
2017-11-21T05:59:08.230Z,0
2017-11-21T06:00:18.260Z,0
2017-11-21T06:01:28.227Z,0
2017-11-21T06:02:37.936Z,0
2017-11-21T06:03:47.947Z,0
2017-11-21T06:04:57.396Z,4
2017-11-21T06:06:07.104Z,4
2017-11-21T06:07:16.540Z,0
2017-11-21T06:08:25.996Z,4
2017-11-21T06:09:35.963Z,4
2017-11-21T06:10:45.406Z,4
2017-11-21T06:11:55.381Z,4
2017-11-21T06:13:05.338Z,8
2017-11-21T06:14:15.035Z,8
2017-11-21T06:15:24.752Z,12
2017-11-21T06:16:34.734Z,12
2017-11-21T06:17:44.445Z,16
2017-11-21T06:18:54.413Z,16
2017-11-21T06:20:04.114Z,20
2017-11-21T06:21:14.080Z,24
2017-11-21T06:22:24.046Z,28
2017-11-21T06:23:33.752Z,32
2017-11-21T06:24:43.720Z,40
2017-11-21T06:25:53.157Z,44
2017-11-21T06:27:03.137Z,48
2017-11-21T06:28:12.861Z,56
2017-11-21T06:29:22.576Z,64
2017-11-21T06:30:32.310Z,72
2017-11-21T06:31:42.014Z,80
2017-11-21T06:32:51.715Z,84
2017-11-21T06:34:01.694Z,100
2017-11-21T06:35:11.696Z,100
2017-11-21T06:36:21.407Z,104
2017-11-21T06:37:31.375Z,116
2017-11-21T06:38:41.340Z,116
2017-11-21T06:39:50.786Z,128
2017-11-21T06:41:00.778Z,136
2017-11-21T06:42:10.248Z,152
2017-11-21T06:43:20.224Z,164
2017-11-21T06:44:30.236Z,168
2017-11-21T06:45:39.939Z,180
2017-11-21T06:46:49.644Z,188
2017-11-21T06:47:59.362Z,192
2017-11-21T06:49:09.319Z,212
2017-11-21T06:50:19.308Z,220
2017-11-21T06:51:29.266Z,240
2017-11-21T06:52:39.234Z,256
2017-11-21T06:53:49.245Z,280
2017-11-21T06:54:58.950Z,312
2017-11-21T06:56:09.182Z,320
2017-11-21T06:57:18.893Z,360
2017-11-21T06:58:28.354Z,400
2017-11-21T06:59:38.330Z,456
2017-11-21T07:00:48.056Z,508
2017-11-21T07:01:57.512Z,544
2017-11-21T07:03:07.485Z,592
2017-11-21T07:04:17.473Z,652
2017-11-21T07:05:27.182Z,668
2017-11-21T07:06:36.615Z,704
2017-11-21T07:07:46.073Z,756
2017-11-21T07:08:55.780Z,776
2017-11-21T07:10:05.507Z,828
2017-11-21T07:11:15.259Z,860
2017-11-21T07:12:25.247Z,792
2017-11-21T07:13:34.981Z,764
2017-11-21T07:14:44.721Z,744
2017-11-21T07:15:54.675Z,756
2017-11-21T07:17:04.641Z,732
2017-11-21T07:18:14.343Z,804
2017-11-21T07:19:24.046Z,864
2017-11-21T07:20:34.052Z,912
2017-11-21T07:21:43.483Z,984
2017-11-21T07:22:53.463Z,1048
2017-11-21T07:24:03.449Z,1132
2017-11-21T07:25:12.900Z,1208
2017-11-21T07:26:22.879Z,1168
2017-11-21T07:27:32.588Z,1232
2017-11-21T07:28:42.296Z,1300
2017-11-21T07:29:51.526Z,1272
2017-11-21T07:31:01.246Z,1312
2017-11-21T07:32:11.234Z,1256
2017-11-21T07:33:20.966Z,1224
2017-11-21T07:34:30.650Z,1188
2017-11-21T07:35:40.346Z,1196
2017-11-21T07:36:50.305Z,1308
2017-11-21T07:38:00.019Z,1360
2017-11-21T07:39:09.994Z,1412
2017-11-21T07:40:19.697Z,1360
2017-11-21T07:41:29.426Z,1296
2017-11-21T07:42:39.397Z,1264
2017-11-21T07:43:49.382Z,1292
2017-11-21T07:44:58.327Z,1300
2017-11-21T07:46:08.058Z,1304
2017-11-21T07:47:18.046Z,1236
2017-11-21T07:48:27.527Z,1280
2017-11-21T07:49:36.990Z,1148
2017-11-21T07:50:47.012Z,1100
2017-11-21T07:51:57.019Z,1184
2017-11-21T07:53:07.016Z,1376
2017-11-21T07:54:16.721Z,1484
2017-11-21T07:55:26.722Z,1636
2017-11-21T07:56:36.733Z,1668
2017-11-21T07:57:46.734Z,1680
2017-11-21T07:58:56.735Z,1616
2017-11-21T08:00:07.093Z,1512
2017-11-21T08:01:16.817Z,1492
2017-11-21T08:02:26.581Z,1572
2017-11-21T08:03:36.578Z,1640
2017-11-21T08:04:46.351Z,1756
2017-11-21T08:05:56.063Z,1920
2017-11-21T08:07:05.803Z,2024
2017-11-21T08:08:15.527Z,2096
2017-11-21T08:09:25.387Z,2336
2017-11-21T08:10:35.104Z,2732
2017-11-21T08:11:45.081Z,3036
2017-11-21T08:12:54.286Z,3332
2017-11-21T08:14:04.272Z,3452
2017-11-21T08:15:14.016Z,3548
2017-11-21T08:16:23.718Z,3732
2017-11-21T08:17:33.412Z,3716
2017-11-21T08:18:43.113Z,3360
2017-11-21T08:19:53.101Z,3204
2017-11-21T08:21:02.831Z,3060
2017-11-21T08:22:12.536Z,2724
2017-11-21T08:23:22.592Z,2540
2017-11-21T08:24:32.617Z,2492
2017-11-21T08:25:42.342Z,2496
2017-11-21T08:26:52.333Z,2668
2017-11-21T08:28:02.316Z,2856
2017-11-21T08:29:12.042Z,3000
2017-11-21T08:30:21.766Z,3084
2017-11-21T08:31:31.227Z,3164
2017-11-21T08:32:40.963Z,3044
2017-11-21T08:33:50.687Z,3008
2017-11-21T08:35:00.665Z,3328
2017-11-21T08:36:10.387Z,3600
2017-11-21T08:37:20.358Z,3572
2017-11-21T08:38:30.338Z,3372
2017-11-21T08:39:39.818Z,3112
2017-11-21T08:40:49.522Z,2816
2017-11-21T08:41:59.652Z,2744
2017-11-21T08:43:09.414Z,2708
2017-11-21T08:44:19.113Z,2780
2017-11-21T08:45:29.084Z,2768
2017-11-21T08:46:38.816Z,2740
2017-11-21T08:47:48.819Z,2736
2017-11-21T08:48:58.536Z,2804
2017-11-21T08:50:07.996Z,2816
2017-11-21T08:51:17.988Z,2728
2017-11-21T08:52:27.743Z,2704
2017-11-21T08:53:37.708Z,2632
2017-11-21T08:54:47.678Z,2572
2017-11-21T08:55:57.398Z,2712
2017-11-21T08:57:06.851Z,2752
2017-11-21T08:58:16.311Z,2804
2017-11-21T08:59:26.320Z,2860
2017-11-21T09:00:36.042Z,2852
2017-11-21T09:01:45.787Z,2936
2017-11-21T09:02:55.549Z,3000
2017-11-21T09:04:05.282Z,3132
2017-11-21T09:05:15.019Z,3136
2017-11-21T09:06:24.728Z,3188
2017-11-21T09:07:34.473Z,3100
2017-11-21T09:08:44.172Z,3248
2017-11-21T09:09:54.157Z,3392
2017-11-21T09:11:03.613Z,3604
2017-11-21T09:12:13.072Z,3852
2017-11-21T09:13:23.053Z,4032
2017-11-21T09:14:32.771Z,3940
2017-11-21T09:15:42.220Z,3984
2017-11-21T09:16:52.219Z,3924
2017-11-21T09:18:01.929Z,3844
2017-11-21T09:19:11.935Z,4072
2017-11-21T09:20:21.912Z,4128
2017-11-21T09:21:31.873Z,4132
2017-11-21T09:22:41.325Z,4320
2017-11-21T09:23:50.789Z,4624
2017-11-21T09:25:00.511Z,4668
2017-11-21T09:26:10.493Z,4272
2017-11-21T09:27:20.269Z,4324
2017-11-21T09:28:30.279Z,4848
2017-11-21T09:29:39.763Z,4940
2017-11-21T09:30:49.735Z,4932
2017-11-21T09:31:59.721Z,5116
2017-11-21T09:33:09.472Z,5392
2017-11-21T09:34:19.195Z,5596
2017-11-21T09:35:28.913Z,5600
2017-11-21T09:36:38.681Z,5668
2017-11-21T09:37:48.406Z,5776
2017-11-21T09:38:58.403Z,6356
2017-11-21T09:40:08.398Z,6928
2017-11-21T09:41:18.451Z,6772
2017-11-21T09:42:28.163Z,6492
2017-11-21T09:43:38.160Z,6072
2017-11-21T09:44:47.918Z,6056
2017-11-21T09:45:57.115Z,6108
2017-11-21T09:47:06.826Z,5972
2017-11-21T09:48:16.578Z,6172
2017-11-21T09:49:26.311Z,6264
2017-11-21T09:50:36.068Z,6420
2017-11-21T09:51:46.078Z,6364
2017-11-21T09:52:56.054Z,6320
2017-11-21T09:54:06.042Z,6364
2017-11-21T09:55:16.012Z,6388
2017-11-21T09:56:25.998Z,6260
2017-11-21T09:57:35.715Z,6536
2017-11-21T09:58:45.715Z,7152
2017-11-21T09:59:55.477Z,7124
2017-11-21T10:01:05.203Z,6688
2017-11-21T10:02:14.393Z,6300
2017-11-21T10:03:24.112Z,5540
2017-11-21T10:04:34.101Z,5132
2017-11-21T10:05:44.156Z,5232
2017-11-21T10:06:54.222Z,5352
2017-11-21T10:08:04.236Z,5660
2017-11-21T10:09:14.270Z,5664
2017-11-21T10:10:24.492Z,5552
2017-11-21T10:11:33.955Z,5432
2017-11-21T10:12:43.418Z,5444
2017-11-21T10:13:53.415Z,5224
2017-11-21T10:15:03.418Z,5008
2017-11-21T10:16:13.429Z,4892
2017-11-21T10:17:23.185Z,4940
2017-11-21T10:18:33.412Z,5008
2017-11-21T10:19:43.144Z,5012
2017-11-21T10:20:53.366Z,5008
2017-11-21T10:22:03.366Z,5108
2017-11-21T10:23:12.818Z,5128
2017-11-21T10:24:22.028Z,5196
2017-11-21T10:25:31.482Z,5388
2017-11-21T10:26:41.498Z,5708
2017-11-21T10:27:50.968Z,5840
2017-11-21T10:29:00.982Z,5780
2017-11-21T10:30:10.734Z,5704
2017-11-21T10:31:20.448Z,5968
2017-11-21T10:32:29.898Z,6084
2017-11-21T10:33:39.617Z,5924
2017-11-21T10:34:49.333Z,5768
2017-11-21T10:35:58.635Z,5688
2017-11-21T10:37:08.366Z,5512
2017-11-21T10:38:18.078Z,5424
2017-11-21T10:39:27.549Z,5572
2017-11-21T10:40:37.550Z,5900
2017-11-21T10:41:47.570Z,6392
2017-11-21T10:42:57.374Z,6512
2017-11-21T10:44:06.848Z,6252
2017-11-21T10:45:16.809Z,6044
2017-11-21T10:46:26.249Z,6104
2017-11-21T10:47:36.246Z,6100
2017-11-21T10:48:46.492Z,6364
2017-11-21T10:49:56.205Z,6452
2017-11-21T10:51:06.230Z,6204
2017-11-21T10:52:16.215Z,5824
2017-11-21T10:53:25.920Z,5560
2017-11-21T10:54:35.920Z,4984
2017-11-21T10:55:45.366Z,4696
2017-11-21T10:56:54.840Z,4504
2017-11-21T10:58:04.053Z,4480
2017-11-21T10:59:15.262Z,4528
2017-11-21T11:00:24.979Z,4524
2017-11-21T11:01:34.712Z,4512
2017-11-21T11:02:44.199Z,4700
2017-11-21T11:03:53.949Z,5128
2017-11-21T11:05:03.662Z,5532
2017-11-21T11:06:13.145Z,6156
2017-11-21T11:07:22.896Z,6940
2017-11-21T11:08:32.892Z,7232
2017-11-21T11:09:42.602Z,7468
2017-11-21T11:10:52.589Z,7692
2017-11-21T11:12:02.313Z,7548
2017-11-21T11:13:12.061Z,7488
2017-11-21T11:14:21.792Z,7820
2017-11-21T11:15:31.245Z,8188
2017-11-21T11:16:40.963Z,8584
2017-11-21T11:17:50.974Z,8904
2017-11-21T11:19:00.985Z,9216
2017-11-21T11:20:10.983Z,9012
2017-11-21T11:21:20.425Z,8012
2017-11-21T11:22:30.211Z,7072
2017-11-21T11:23:40.171Z,6540
2017-11-21T11:24:50.137Z,5816
2017-11-21T11:25:59.863Z,5480
2017-11-21T11:27:09.563Z,5552
2017-11-21T11:28:19.549Z,5828
2017-11-21T11:29:29.008Z,5872
2017-11-21T11:30:38.748Z,5336
2017-11-21T11:31:48.474Z,5028
2017-11-21T11:32:58.182Z,5000
2017-11-21T11:34:07.642Z,5228
2017-11-21T11:35:17.113Z,4972
2017-11-21T11:36:27.106Z,4832
2017-11-21T11:37:36.604Z,4724
2017-11-21T11:38:46.105Z,4860
2017-11-21T11:39:56.106Z,4784
2017-11-21T11:41:06.101Z,4972
2017-11-21T11:42:15.805Z,4924
2017-11-21T11:43:25.534Z,5344
2017-11-21T11:44:35.522Z,5712
2017-11-21T11:45:45.245Z,5644
2017-11-21T11:46:55.228Z,5608
2017-11-21T11:48:05.203Z,5288
2017-11-21T11:49:15.197Z,5384
2017-11-21T11:50:25.229Z,5568
2017-11-21T11:51:34.690Z,5948
2017-11-21T11:52:43.652Z,5864
2017-11-21T11:53:53.638Z,6160
2017-11-21T11:55:03.614Z,6144
2017-11-21T11:56:13.061Z,6344
2017-11-21T11:57:22.775Z,6424
2017-11-21T11:58:32.502Z,6404
2017-11-21T11:59:42.233Z,6800
2017-11-21T12:00:51.943Z,7280
2017-11-21T12:02:01.667Z,7956
2017-11-21T12:03:11.645Z,8372
2017-11-21T12:04:21.389Z,8712
2017-11-21T12:05:30.859Z,9264
2017-11-21T12:06:40.857Z,9612
2017-11-21T12:07:49.774Z,9256
2017-11-21T12:08:59.756Z,8124
2017-11-21T12:10:09.821Z,7276
2017-11-21T12:11:19.556Z,7200
2017-11-21T12:12:29.277Z,7396
2017-11-21T12:13:39.000Z,7576
2017-11-21T12:14:48.706Z,8644
2017-11-21T12:15:58.700Z,8984
2017-11-21T12:17:08.155Z,8908
2017-11-21T12:18:18.148Z,7596
2017-11-21T12:19:27.601Z,6640
2017-11-21T12:20:37.343Z,6632
2017-11-21T12:21:47.353Z,6552
2017-11-21T12:22:57.078Z,7000
2017-11-21T12:24:06.821Z,6752
2017-11-21T12:25:16.279Z,6276
2017-11-21T12:26:26.296Z,5956
2017-11-21T12:27:35.723Z,5416
2017-11-21T12:28:45.731Z,5128
2017-11-21T12:29:55.451Z,4876
2017-11-21T12:31:04.908Z,5020
2017-11-21T12:32:14.890Z,5112
2017-11-21T12:33:24.870Z,5200
2017-11-21T12:34:34.861Z,5192
2017-11-21T12:35:44.585Z,5080
2017-11-21T12:36:54.573Z,4932
2017-11-21T12:38:04.568Z,4832
2017-11-21T12:39:14.284Z,4704
2017-11-21T12:40:24.301Z,4636
2017-11-21T12:41:34.287Z,4756
2017-11-21T12:42:43.762Z,4716
2017-11-21T12:43:53.506Z,4720
2017-11-21T12:45:03.233Z,4504
2017-11-21T12:46:12.429Z,4488
2017-11-21T12:47:22.153Z,4276
2017-11-21T12:48:31.861Z,3968
2017-11-21T12:49:41.593Z,3820
2017-11-21T12:50:51.594Z,3524
2017-11-21T12:52:01.574Z,3292
2017-11-21T12:53:11.304Z,3220
2017-11-21T12:54:21.301Z,3308
2017-11-21T12:55:31.055Z,3548
2017-11-21T12:56:41.045Z,3464
2017-11-21T12:57:51.011Z,3212
2017-11-21T12:59:01.014Z,3188
2017-11-21T13:00:10.738Z,3248
2017-11-21T13:01:20.212Z,3224
2017-11-21T13:02:30.339Z,3180
2017-11-21T13:03:40.116Z,3240
2017-11-21T13:04:49.893Z,3320
2017-11-21T13:05:59.963Z,3436
2017-11-21T13:07:09.417Z,3604
2017-11-21T13:08:19.412Z,3816
2017-11-21T13:09:29.419Z,3884
2017-11-21T13:10:39.409Z,3864
2017-11-21T13:11:48.879Z,3876
2017-11-21T13:12:58.585Z,3788
2017-11-21T13:14:08.580Z,3776
2017-11-21T13:15:18.555Z,3772
2017-11-21T13:16:28.550Z,3564
2017-11-21T13:17:38.557Z,3348
2017-11-21T13:18:48.768Z,3148
2017-11-21T13:19:58.754Z,2992
2017-11-21T13:21:08.286Z,2840
2017-11-21T13:22:18.297Z,2732
2017-11-21T13:23:28.342Z,2704
2017-11-21T13:24:38.061Z,2676
2017-11-21T13:25:47.786Z,2636
2017-11-21T13:26:57.231Z,2584
2017-11-21T13:28:07.206Z,2456
2017-11-21T13:29:17.041Z,2304
2017-11-21T13:30:27.050Z,2240
2017-11-21T13:31:36.525Z,2276
2017-11-21T13:32:46.497Z,2360
2017-11-21T13:33:56.234Z,2456
2017-11-21T13:35:05.716Z,2520
2017-11-21T13:36:15.712Z,2548
2017-11-21T13:37:25.696Z,2552
2017-11-21T13:38:35.148Z,2604
2017-11-21T13:39:44.868Z,2564
2017-11-21T13:40:54.625Z,2404
2017-11-21T13:42:04.104Z,2160
2017-11-21T13:43:14.086Z,2008
2017-11-21T13:44:23.808Z,1988
2017-11-21T13:45:33.516Z,1920
2017-11-21T13:46:43.424Z,1884
2017-11-21T13:47:52.616Z,1940
2017-11-21T13:49:02.338Z,2036
2017-11-21T13:50:11.544Z,2068
2017-11-21T13:51:21.269Z,2076
2017-11-21T13:52:31.291Z,2088
2017-11-21T13:53:41.057Z,2120
2017-11-21T13:54:50.511Z,2120
2017-11-21T13:55:59.945Z,2056
2017-11-21T13:57:09.381Z,1888
2017-11-21T13:58:19.096Z,1808
2017-11-21T13:59:28.803Z,1736
2017-11-21T14:00:38.554Z,1668
2017-11-21T14:01:48.535Z,1664
2017-11-21T14:02:58.531Z,1720
2017-11-21T14:04:08.280Z,1668
2017-11-21T14:05:18.025Z,1596
2017-11-21T14:06:27.766Z,1488
2017-11-21T14:07:37.802Z,1360
2017-11-21T14:08:47.522Z,1272
2017-11-21T14:09:57.260Z,1240
2017-11-21T14:11:07.234Z,1232
2017-11-21T14:12:16.949Z,1244
2017-11-21T14:13:26.680Z,1292
2017-11-21T14:14:36.124Z,1344
2017-11-21T14:15:45.877Z,1412
2017-11-21T14:16:55.564Z,1464
2017-11-21T14:18:05.319Z,1488
2017-11-21T14:19:15.035Z,1520
2017-11-21T14:20:24.753Z,1528
2017-11-21T14:21:34.482Z,1492
2017-11-21T14:22:44.193Z,1444
2017-11-21T14:23:53.917Z,1400
2017-11-21T14:25:03.384Z,1364
2017-11-21T14:26:13.370Z,1340
2017-11-21T14:27:23.117Z,1352
2017-11-21T14:28:32.562Z,1348
2017-11-21T14:29:42.283Z,1308
2017-11-21T14:30:52.008Z,1256
2017-11-21T14:32:01.729Z,1124
2017-11-21T14:33:12.041Z,1008
2017-11-21T14:34:22.027Z,908
2017-11-21T14:35:32.016Z,884
2017-11-21T14:36:41.752Z,916
2017-11-21T14:37:51.478Z,924
2017-11-21T14:39:00.948Z,900
2017-11-21T14:40:10.930Z,840
2017-11-21T14:41:20.389Z,760
2017-11-21T14:42:30.368Z,688
2017-11-21T14:43:40.081Z,620
2017-11-21T14:44:50.073Z,560
2017-11-21T14:46:00.080Z,496
2017-11-21T14:47:10.069Z,448
2017-11-21T14:48:19.503Z,416
2017-11-21T14:49:29.233Z,396
2017-11-21T14:50:39.215Z,388
2017-11-21T14:51:49.217Z,364
2017-11-21T14:52:59.224Z,328
2017-11-21T14:54:08.990Z,284
2017-11-21T14:55:18.988Z,248
2017-11-21T14:56:28.953Z,220
2017-11-21T14:57:38.677Z,204
2017-11-21T14:58:48.386Z,192
2017-11-21T14:59:58.354Z,180
2017-11-21T15:01:08.329Z,168
2017-11-21T15:02:18.325Z,152
2017-11-21T15:03:28.326Z,140
2017-11-21T15:04:38.024Z,136
2017-11-21T15:05:47.779Z,124
2017-11-21T15:06:57.222Z,108
2017-11-21T15:08:06.924Z,100
2017-11-21T15:09:16.636Z,108
2017-11-21T15:10:26.372Z,100
2017-11-21T15:11:36.090Z,92
2017-11-21T15:12:46.070Z,80
2017-11-21T15:13:55.792Z,72
2017-11-21T15:15:05.526Z,68
2017-11-21T15:16:15.028Z,60
2017-11-21T15:17:25.022Z,56
2017-11-21T15:18:35.004Z,44
2017-11-21T15:19:44.729Z,40
2017-11-21T15:20:54.732Z,36
2017-11-21T15:22:04.447Z,32
2017-11-21T15:23:14.155Z,28
2017-11-21T15:24:24.126Z,20
2017-11-21T15:25:33.878Z,20
2017-11-21T15:26:43.588Z,16
2017-11-21T15:27:53.318Z,12
2017-11-21T15:29:03.037Z,12
2017-11-21T15:30:13.033Z,12
2017-11-21T15:31:22.759Z,8
2017-11-21T15:32:32.730Z,8
2017-11-21T15:33:42.739Z,4
2017-11-21T15:34:52.494Z,4
2017-11-21T15:36:02.223Z,4
2017-11-21T15:37:12.201Z,4
2017-11-21T15:38:21.668Z,4
2017-11-21T15:39:31.687Z,0
2017-11-21T15:40:41.679Z,0
2017-11-21T15:41:51.699Z,0
2017-11-21T15:43:01.420Z,0
2017-11-21T15:44:11.136Z,0
2017-11-21T15:45:20.608Z,0
2017-11-21T15:46:30.089Z,0
2017-11-21T15:47:40.065Z,0
2017-11-21T15:48:49.799Z,0
2017-11-21T15:49:59.505Z,0
2017-11-21T15:51:09.281Z,0
2017-11-21T15:52:18.997Z,0
2017-11-21T15:53:28.993Z,0
2017-11-21T15:54:38.720Z,0
2017-11-21T15:55:48.197Z,0
2017-11-21T15:56:57.917Z,0
2017-11-21T15:58:07.897Z,0
2017-11-21T15:59:17.876Z,0
2017-11-21T16:00:27.852Z,0
2017-11-21T16:01:37.845Z,0
2017-11-21T16:02:47.829Z,0
2017-11-21T16:03:57.550Z,0
2017-11-21T16:05:07.008Z,0
2017-11-21T16:06:17.017Z,0
2017-11-21T16:07:26.996Z,0
2017-11-21T16:08:36.714Z,0
2017-11-21T16:09:46.468Z,0
2017-11-21T16:10:56.468Z,0
2017-11-21T16:12:06.442Z,0
2017-11-21T16:13:16.426Z,0
2017-11-21T16:14:26.132Z,0
2017-11-21T16:15:35.850Z,0
2017-11-21T16:16:45.634Z,0